Harris, New York
Current Conditions -  °F | °C
As of 4:15 PM on Saturday 22 Nov 2014 (Local Time) from KMSV Reporting Station
Overcast Overcast  
Wind Chill: 30°   Ceiling: 2900
Heat Index: 36°   Visibility: 10mi
Dew Point: 16°   Wind: 7mph
Humidity: 44%   Direction: 190°S
Pressure: 30.17"   Gusts: NA
Location:  41.71°N, 74.73°W
Report Text: KMSV 222115Z AUTO 19006KT 10SM OVC029 02/M09 A3017 RMK AO1
Loading
Personal Weather Stations






























Interactive Weather Map New forecast layout! Learn more

10-Day Weather Forecast

Advertisements
Track Severe Weather on mobile